Time;durP1;ratioP1;P1;durP2;ratioP2;P2;SDS_P1;SDS_P2;PMS_P1;PMS_P2;Temp;Humidity;BMP_temperature;BMP_pressure;BME280_temperature;BME280_humidity;BME280_pressure;Samples;Min_cycle;Max_cycle;Signal;HPM_P1;HPM_P2
2021/05/26 00:00:55;;;;;;;0.55;0.38;;;13.80;69.80;;;;;;5036808;28;20029;-67
2021/05/26 00:03:21;;;;;;;0.88;0.40;;;13.80;70.50;;;;;;5036499;28;20025;-67
2021/05/26 00:05:48;;;;;;;1.67;0.60;;;13.80;70.60;;;;;;5036515;28;20147;-67
2021/05/26 00:08:15;;;;;;;1.95;0.47;;;13.80;71.60;;;;;;5036371;28;20021;-67
2021/05/26 00:10:40;;;;;;;4.97;0.43;;;13.70;71.20;;;;;;5036282;28;20096;-67
2021/05/26 00:13:06;;;;;;;0.98;0.32;;;13.70;71.20;;;;;;5036379;28;20421;-67
2021/05/26 00:15:32;;;;;;;4.40;0.40;;;13.70;71.60;;;;;;5036386;28;20021;-67
2021/05/26 00:17:57;;;;;;;2.28;0.88;;;13.60;71.50;;;;;;5036253;28;20037;-67
2021/05/26 00:20:23;;;;;;;1.45;0.60;;;13.60;71.30;;;;;;5036123;28;20385;-67
2021/05/26 00:22:49;;;;;;;3.08;0.68;;;13.60;71.20;;;;;;5036237;28;20022;-67
2021/05/26 00:25:14;;;;;;;2.00;0.50;;;13.60;71.20;;;;;;5036204;28;20029;-67
2021/05/26 00:27:40;;;;;;;1.48;0.52;;;13.80;75.60;;;;;;5036234;28;20113;-67
2021/05/26 00:30:06;;;;;;;3.65;0.77;;;13.70;75.90;;;;;;5035774;28;20045;-67
2021/05/26 00:32:32;;;;;;;3.58;0.75;;;13.70;78.10;;;;;;5035931;28;20104;-67
2021/05/26 00:34:58;;;;;;;2.40;0.57;;;13.70;79.00;;;;;;5036120;28;20052;-67
2021/05/26 00:37:23;;;;;;;1.08;0.57;;;13.70;79.30;;;;;;5035778;28;20029;-67
2021/05/26 00:39:49;;;;;;;1.70;0.65;;;13.70;78.30;;;;;;5035837;28;20104;-67
2021/05/26 00:42:22;;;;;;;1.85;0.50;;;13.60;88.90;;;;;;5035239;28;20048;-67
2021/05/26 00:44:53;;;;;;;;;;;13.70;83.90;;;;;;5036161;28;20033;-67
2021/05/26 00:47:38;;;;;;;1.45;0.40;;;13.50;71.40;;;;;;5035711;28;19955;-67
2021/05/26 00:50:05;;;;;;;2.47;0.50;;;13.50;71.40;;;;;;5035545;28;20039;-67
2021/05/26 00:52:30;;;;;;;4.45;0.80;;;13.50;71.60;;;;;;5035306;28;20064;-67
2021/05/26 00:54:56;;;;;;;2.45;0.70;;;13.50;71.90;;;;;;5035373;28;20474;-67
2021/05/26 00:57:22;;;;;;;3.13;0.63;;;13.50;71.70;;;;;;5034676;28;20033;-68
2021/05/26 00:59:48;;;;;;;2.50;0.80;;;13.50;71.50;;;;;;5031526;28;20022;-67
2021/05/26 01:02:14;;;;;;;1.58;0.63;;;13.50;71.10;;;;;;5032495;28;20029;-67
2021/05/26 01:04:39;;;;;;;2.15;0.82;;;13.50;70.90;;;;;;5033630;28;20021;-67
2021/05/26 01:07:05;;;;;;;4.32;0.70;;;13.50;70.90;;;;;;5034867;28;20382;-66
2021/05/26 01:09:31;;;;;;;6.07;0.88;;;13.50;71.10;;;;;;5035329;28;20029;-67
2021/05/26 01:11:56;;;;;;;13.73;1.33;;;13.50;71.30;;;;;;5035204;28;20546;-67
2021/05/26 01:14:22;;;;;;;7.20;0.70;;;13.40;71.00;;;;;;5034975;28;20026;-67
2021/05/26 01:16:48;;;;;;;6.30;0.68;;;13.40;71.10;;;;;;5034862;28;20100;-67
2021/05/26 01:19:16;;;;;;;1.15;0.63;;;13.50;70.80;;;;;;5034965;28;20079;-67
2021/05/26 01:21:41;;;;;;;1.73;0.40;;;13.40;70.40;;;;;;5034650;28;20022;-67
2021/05/26 01:24:08;;;;;;;0.95;0.40;;;13.50;70.20;;;;;;5034805;28;20101;-67
2021/05/26 01:26:34;;;;;;;1.65;0.40;;;13.50;70.30;;;;;;5034742;28;20072;-67
2021/05/26 01:29:00;;;;;;;3.67;0.50;;;13.50;70.50;;;;;;5034180;28;20049;-67
2021/05/26 01:31:26;;;;;;;1.52;0.45;;;13.40;70.60;;;;;;5034825;28;20037;-67
2021/05/26 01:33:52;;;;;;;1.52;0.60;;;13.40;70.90;;;;;;5034721;28;20113;-67
2021/05/26 01:36:17;;;;;;;3.47;0.43;;;13.40;71.20;;;;;;5034351;28;20037;-67
2021/05/26 01:38:43;;;;;;;1.90;0.38;;;13.40;71.80;;;;;;5034250;28;20116;-67
2021/05/26 01:41:09;;;;;;;2.53;0.30;;;13.40;71.60;;;;;;5034395;28;20025;-66
2021/05/26 01:43:35;;;;;;;2.25;0.60;;;13.40;71.60;;;;;;5034276;28;20030;-67
2021/05/26 01:46:02;;;;;;;1.00;0.40;;;13.40;71.70;;;;;;5034390;28;20025;-67
2021/05/26 01:48:27;;;;;;;4.85;0.60;;;13.30;72.00;;;;;;5034301;28;20029;-66
2021/05/26 01:50:53;;;;;;;1.83;0.50;;;13.30;72.20;;;;;;5034154;28;20079;-66
2021/05/26 01:53:19;;;;;;;4.32;0.70;;;13.30;72.30;;;;;;5034374;28;20167;-67
2021/05/26 01:55:45;;;;;;;0.73;0.40;;;13.30;72.50;;;;;;5034321;28;20017;-67
2021/05/26 01:58:13;;;;;;;0.73;0.50;;;13.30;71.10;;;;;;5033854;28;20393;-67
2021/05/26 02:00:41;;;;;;;0.73;0.35;;;13.30;71.50;;;;;;5034490;28;20022;-67
2021/05/26 02:03:07;;;;;;;1.40;0.50;;;13.30;70.60;;;;;;5034227;28;20497;-67
2021/05/26 02:05:33;;;;;;;2.63;0.50;;;13.30;70.50;;;;;;5034187;28;20049;-67
2021/05/26 02:08:00;;;;;;;2.50;0.38;;;13.30;70.20;;;;;;5034197;28;20025;-67
2021/05/26 02:13:10;;;;;;;1.02;0.40;;;13.40;70.20;;;;;;5034167;28;20507;-67
2021/05/26 02:15:36;;;;;;;1.77;0.60;;;13.40;70.00;;;;;;5033964;28;20026;-67
2021/05/26 02:18:03;;;;;;;4.68;0.52;;;13.40;69.50;;;;;;5033829;28;20033;-67
2021/05/26 02:20:29;;;;;;;3.05;0.50;;;13.40;69.40;;;;;;5033747;28;20638;-67
2021/05/26 02:22:54;;;;;;;2.40;0.70;;;13.40;69.30;;;;;;5033936;28;20025;-67
2021/05/26 02:25:20;;;;;;;1.83;0.50;;;13.40;69.30;;;;;;5033807;28;20026;-67
2021/05/26 02:27:46;;;;;;;0.95;0.40;;;13.40;69.50;;;;;;5033710;28;20029;-67
2021/05/26 02:30:12;;;;;;;1.15;0.40;;;13.40;69.60;;;;;;5033528;28;20057;-67
2021/05/26 02:32:38;;;;;;;0.95;0.50;;;13.40;70.00;;;;;;5033410;28;20064;-67
2021/05/26 02:35:06;;;;;;;0.68;0.40;;;13.40;70.40;;;;;;5033837;28;20041;-67
2021/05/26 02:37:32;;;;;;;1.13;0.38;;;13.40;70.50;;;;;;5033496;28;20029;-67
2021/05/26 02:39:57;;;;;;;3.10;0.73;;;13.40;70.50;;;;;;5033417;28;20033;-67
2021/05/26 02:42:23;;;;;;;1.25;0.50;;;13.40;70.40;;;;;;5033792;28;20025;-67
2021/05/26 02:44:49;;;;;;;1.30;0.60;;;13.40;70.70;;;;;;5033491;28;20034;-67
2021/05/26 02:47:14;;;;;;;1.60;0.50;;;13.40;70.50;;;;;;5032995;28;20393;-67
2021/05/26 02:49:40;;;;;;;2.03;0.57;;;13.30;70.30;;;;;;5033361;28;20021;-67
2021/05/26 02:52:06;;;;;;;6.15;0.63;;;13.40;69.90;;;;;;5033571;28;20103;-67
2021/05/26 02:54:31;;;;;;;2.38;0.50;;;13.30;69.80;;;;;;5033280;28;20026;-67
2021/05/26 02:56:57;;;;;;;2.03;0.45;;;13.30;70.00;;;;;;5033178;28;20033;-67
2021/05/26 02:59:23;;;;;;;1.10;0.60;;;13.30;70.60;;;;;;5033102;28;20029;-67
2021/05/26 03:01:48;;;;;;;1.75;0.60;;;13.30;71.40;;;;;;5033465;28;20032;-67
2021/05/26 03:04:14;;;;;;;3.47;0.50;;;13.30;71.30;;;;;;5033527;28;20112;-67
2021/05/26 03:06:40;;;;;;;1.77;0.63;;;13.30;71.70;;;;;;5033224;28;20452;-67
2021/05/26 03:09:06;;;;;;;1.58;0.63;;;13.20;71.50;;;;;;5033322;28;20036;-67
2021/05/26 03:11:31;;;;;;;4.75;0.68;;;13.20;71.40;;;;;;5033158;28;20103;-67
2021/05/26 03:13:57;;;;;;;2.53;0.60;;;13.20;71.10;;;;;;5033143;28;20084;-67
2021/05/26 03:16:23;;;;;;;2.03;0.63;;;13.20;70.80;;;;;;5033210;28;20036;-67
2021/05/26 03:18:49;;;;;;;1.42;0.60;;;13.20;70.70;;;;;;5033072;28;20108;-67
2021/05/26 03:21:14;;;;;;;2.70;0.52;;;13.20;70.80;;;;;;5032887;28;20374;-67
2021/05/26 03:23:42;;;;;;;1.13;0.60;;;13.20;70.60;;;;;;5032938;28;20421;-67
2021/05/26 03:26:08;;;;;;;2.72;0.70;;;13.20;70.40;;;;;;5033147;28;20079;-67
2021/05/26 03:28:34;;;;;;;1.25;0.60;;;13.20;70.60;;;;;;5032760;28;20030;-67
2021/05/26 03:31:00;;;;;;;7.63;0.85;;;13.20;71.10;;;;;;5032671;28;20150;-67
2021/05/26 03:33:26;;;;;;;2.60;0.70;;;;;;;;;;5033148;28;20045;-67
2021/05/26 03:35:52;;;;;;;0.90;0.60;;;13.20;70.10;;;;;;5033163;28;20107;-67
2021/05/26 03:38:18;;;;;;;1.65;0.70;;;13.20;70.40;;;;;;5032752;28;20076;-67
2021/05/26 03:40:43;;;;;;;1.48;0.60;;;13.20;70.20;;;;;;5033165;28;20022;-67
2021/05/26 03:43:09;;;;;;;2.85;0.63;;;13.20;70.40;;;;;;5033155;28;20059;-67
2021/05/26 03:45:35;;;;;;;0.88;0.50;;;13.20;70.80;;;;;;5032721;28;20030;-67
2021/05/26 03:48:01;;;;;;;1.10;0.60;;;13.10;70.80;;;;;;5032850;28;20104;-67
2021/05/26 03:50:29;;;;;;;5.18;0.60;;;13.10;70.60;;;;;;5032846;28;20026;-67
2021/05/26 03:52:56;;;;;;;1.08;0.63;;;13.10;70.20;;;;;;5033146;28;20489;-67
2021/05/26 03:55:23;;;;;;;3.38;0.70;;;13.10;69.40;;;;;;5032767;28;20026;-67
2021/05/26 03:57:49;;;;;;;1.85;0.63;;;13.10;68.90;;;;;;5032483;28;20030;-67
2021/05/26 04:00:18;;;;;;;3.25;0.70;;;13.10;69.00;;;;;;5032888;28;20026;-67
2021/05/26 04:02:44;;;;;;;5.55;0.57;;;13.20;68.20;;;;;;5032873;28;20477;-67
2021/05/26 04:05:10;;;;;;;1.13;0.55;;;13.20;67.90;;;;;;5032533;28;20109;-67
2021/05/26 04:07:35;;;;;;;2.38;0.55;;;13.20;67.30;;;;;;5032435;28;20026;-67
2021/05/26 04:10:01;;;;;;;2.42;0.73;;;13.20;67.50;;;;;;5032598;28;20040;-67
2021/05/26 04:12:28;;;;;;;4.80;0.70;;;13.20;67.60;;;;;;5032556;28;20025;-67
2021/05/26 04:14:55;;;;;;;3.30;0.68;;;13.30;67.70;;;;;;5032535;28;20029;-67
2021/05/26 04:17:20;;;;;;;1.02;0.60;;;13.30;67.60;;;;;;5032558;28;20086;-67
2021/05/26 04:19:46;;;;;;;0.90;0.50;;;13.30;67.40;;;;;;5032865;28;20033;-67
2021/05/26 04:22:12;;;;;;;3.97;0.63;;;13.30;67.20;;;;;;5032672;28;20026;-67
2021/05/26 04:24:37;;;;;;;2.03;0.50;;;13.30;67.90;;;;;;5032614;28;20026;-67
2021/05/26 04:27:03;;;;;;;2.17;0.60;;;13.30;67.60;;;;;;5032656;28;20048;-67
2021/05/26 04:29:29;;;;;;;0.80;0.55;;;13.40;67.90;;;;;;5032220;28;20050;-67
2021/05/26 04:31:57;;;;;;;1.85;0.55;;;13.40;68.00;;;;;;5032416;28;20057;-67
2021/05/26 04:34:24;;;;;;;0.77;0.50;;;13.40;68.20;;;;;;5035227;28;20083;-67
2021/05/26 04:36:50;;;;;;;0.65;0.43;;;13.40;68.40;;;;;;5035974;28;20388;-67
2021/05/26 04:39:16;;;;;;;1.90;0.80;;;13.40;68.30;;;;;;5035922;28;20033;-67
2021/05/26 04:41:42;;;;;;;1.92;0.60;;;13.50;68.30;;;;;;5035608;28;20037;-67
2021/05/26 04:44:07;;;;;;;3.25;0.63;;;13.50;68.10;;;;;;5035733;28;20080;-67
2021/05/26 04:46:33;;;;;;;6.57;0.50;;;13.50;67.90;;;;;;5035771;28;20053;-67
2021/05/26 04:48:59;;;;;;;2.30;0.60;;;13.50;68.00;;;;;;5035752;28;20029;-67
2021/05/26 04:51:25;;;;;;;1.35;0.57;;;13.60;67.90;;;;;;5035619;28;20497;-66
2021/05/26 04:53:50;;;;;;;0.93;0.60;;;13.60;67.60;;;;;;5035515;28;20026;-67
2021/05/26 04:56:16;;;;;;;0.68;0.35;;;13.60;67.50;;;;;;5035539;28;20028;-67
2021/05/26 04:58:42;;;;;;;0.68;0.40;;;13.60;66.90;;;;;;5035720;28;20523;-67
2021/05/26 05:01:09;;;;;;;0.70;0.40;;;13.70;66.60;;;;;;5035673;28;20064;-67
2021/05/26 05:03:35;;;;;;;1.70;0.55;;;13.70;66.50;;;;;;5035296;28;20550;-67
2021/05/26 05:06:00;;;;;;;4.78;0.57;;;13.70;66.60;;;;;;5035404;28;20025;-67
2021/05/26 05:08:26;;;;;;;3.00;0.60;;;13.80;67.00;;;;;;5035406;28;20036;-67
2021/05/26 05:10:55;;;;;;;1.17;0.50;;;13.80;66.60;;;;;;5035385;28;20354;-66
2021/05/26 05:13:24;;;;;;;0.85;0.40;;;13.90;66.40;;;;;;5035482;28;20034;-67
2021/05/26 05:15:50;;;;;;;1.48;0.60;;;13.90;66.20;;;;;;5035562;28;20028;-67
2021/05/26 05:18:16;;;;;;;1.30;0.43;;;13.90;66.20;;;;;;5035191;28;20037;-66
2021/05/26 05:20:41;;;;;;;2.65;0.50;;;14.00;66.20;;;;;;5035292;28;20021;-67
2021/05/26 05:23:07;;;;;;;2.72;0.40;;;13.90;66.10;;;;;;5035048;28;20115;-67
2021/05/26 05:25:33;;;;;;;0.88;0.45;;;14.00;67.00;;;;;;5035062;28;20026;-67
2021/05/26 05:27:58;;;;;;;1.65;0.50;;;14.00;66.80;;;;;;5035059;28;20491;-67
2021/05/26 05:30:25;;;;;;;1.67;0.55;;;14.00;67.00;;;;;;5033687;28;20044;-67
2021/05/26 05:32:50;;;;;;;1.42;0.60;;;14.10;67.10;;;;;;5034720;28;20025;-67
2021/05/26 05:35:16;;;;;;;3.13;0.60;;;14.10;66.70;;;;;;5035122;28;20036;-67
2021/05/26 05:37:42;;;;;;;1.17;0.60;;;14.20;66.50;;;;;;5035038;28;20029;-67
2021/05/26 05:40:08;;;;;;;1.52;0.50;;;14.20;66.20;;;;;;5034810;28;20507;-66
2021/05/26 05:42:34;;;;;;;1.13;0.50;;;14.20;65.90;;;;;;5034670;28;20060;-67
2021/05/26 05:45:00;;;;;;;4.43;0.63;;;14.20;66.10;;;;;;5034206;28;20052;-67
2021/05/26 05:47:25;;;;;;;1.85;0.80;;;14.30;66.30;;;;;;5034337;28;20152;-67
2021/05/26 05:49:51;;;;;;;1.17;0.52;;;14.30;66.20;;;;;;5034546;28;20465;-67
2021/05/26 05:52:17;;;;;;;1.67;0.63;;;14.40;66.40;;;;;;5034584;28;20029;-67
2021/05/26 05:54:44;;;;;;;3.03;0.50;;;14.40;66.50;;;;;;5032926;28;20017;-67
2021/05/26 05:57:10;;;;;;;1.83;0.70;;;14.50;66.80;;;;;;5032985;28;20036;-67
2021/05/26 05:59:35;;;;;;;3.67;0.52;;;14.50;67.00;;;;;;5034247;28;20386;-67
2021/05/26 06:02:01;;;;;;;1.90;0.70;;;14.50;67.00;;;;;;5034416;28;20053;-67
2021/05/26 06:04:27;;;;;;;1.50;0.50;;;14.60;66.90;;;;;;5034406;28;20108;-67
2021/05/26 06:06:53;;;;;;;3.08;0.65;;;14.60;67.00;;;;;;5034528;28;20029;-67
2021/05/26 06:09:20;;;;;;;3.25;0.52;;;14.60;66.80;;;;;;5033795;28;20473;-67
2021/05/26 06:11:46;;;;;;;2.47;0.60;;;14.70;66.90;;;;;;5034267;28;20112;-67
2021/05/26 06:14:12;;;;;;;1.45;0.55;;;14.70;67.10;;;;;;5034084;28;20036;-67
2021/05/26 06:16:39;;;;;;;2.10;0.70;;;14.80;67.00;;;;;;5033162;28;20033;-67
2021/05/26 06:19:05;;;;;;;1.38;0.50;;;14.80;67.10;;;;;;5033407;28;20069;-65
2021/05/26 06:21:33;;;;;;;1.05;0.60;;;14.90;66.40;;;;;;5032386;28;20104;-67
2021/05/26 06:23:58;;;;;;;1.08;0.50;;;14.90;65.50;;;;;;5032815;28;20033;-69
2021/05/26 06:26:25;;;;;;;1.75;0.52;;;15.00;64.90;;;;;;5030944;28;20029;-67
2021/05/26 06:28:50;;;;;;;1.23;0.55;;;15.00;65.30;;;;;;5032878;28;20036;-66
2021/05/26 06:31:17;;;;;;;2.50;0.60;;;15.10;64.00;;;;;;5033331;28;20494;-67
2021/05/26 06:33:43;;;;;;;1.92;0.50;;;15.20;63.90;;;;;;5033230;28;20040;-68
2021/05/26 06:36:12;;;;;;;1.42;0.22;;;15.30;74.30;;;;;;5033447;28;20025;-66
2021/05/26 06:38:38;;;;;;;2.20;0.68;;;15.30;63.70;;;;;;5032937;28;20120;-66
2021/05/26 06:41:04;;;;;;;1.08;0.60;;;15.30;63.50;;;;;;5033519;28;20013;-67
2021/05/26 06:43:31;;;;;;;4.55;0.57;;;15.40;63.70;;;;;;5033182;28;20032;-67
2021/05/26 06:45:56;;;;;;;3.33;0.70;;;15.50;63.80;;;;;;5032906;28;20386;-67
2021/05/26 06:48:22;;;;;;;5.22;0.70;;;15.50;64.00;;;;;;5032604;28;20021;-67
2021/05/26 06:50:48;;;;;;;1.10;0.50;;;15.60;64.30;;;;;;5033082;28;20029;-66
2021/05/26 06:53:14;;;;;;;6.38;0.60;;;15.60;63.70;;;;;;5033367;28;20078;-68
2021/05/26 06:55:40;;;;;;;2.58;0.75;;;15.70;63.70;;;;;;5032440;28;20022;-68
2021/05/26 06:58:05;;;;;;;1.63;0.60;;;15.80;63.60;;;;;;5032673;28;20397;-69
2021/05/26 07:00:32;;;;;;;1.20;0.70;;;15.80;63.30;;;;;;5032919;28;20032;-67
2021/05/26 07:02:58;;;;;;;2.30;0.70;;;15.90;62.60;;;;;;5032232;28;20033;-69
2021/05/26 07:05:23;;;;;;;1.58;0.60;;;15.90;62.60;;;;;;5032770;28;20052;-66
2021/05/26 07:07:49;;;;;;;2.42;0.68;;;16.00;62.90;;;;;;5032918;28;20510;-72
2021/05/26 07:10:16;;;;;;;1.27;0.60;;;16.10;62.80;;;;;;5032868;28;20108;-67
2021/05/26 07:12:42;;;;;;;3.05;0.65;;;16.10;63.00;;;;;;5032941;28;20026;-76
2021/05/26 07:15:09;;;;;;;1.73;0.70;;;16.20;62.50;;;;;;5032522;28;20028;-67
2021/05/26 07:17:34;;;;;;;3.25;0.77;;;16.30;62.70;;;;;;5032146;28;20119;-65
2021/05/26 07:20:03;;;;;;;2.65;0.40;;;16.30;63.10;;;;;;5032562;28;20127;-66
2021/05/26 07:22:29;;;;;;;1.67;0.52;;;16.40;63.10;;;;;;5032546;28;20033;-76
2021/05/26 07:24:54;;;;;;;1.10;0.70;;;16.50;62.50;;;;;;5032615;28;20022;-66
2021/05/26 07:27:20;;;;;;;1.90;0.60;;;16.60;62.70;;;;;;5032996;28;20032;-65
2021/05/26 07:29:46;;;;;;;2.22;0.45;;;16.60;63.00;;;;;;5032648;28;20071;-66
2021/05/26 07:32:11;;;;;;;0.88;0.50;;;16.70;62.90;;;;;;5031427;28;20021;-66
2021/05/26 07:34:37;;;;;;;2.22;0.90;;;16.70;62.30;;;;;;5032263;28;20429;-76
2021/05/26 07:37:02;;;;;;;1.73;0.70;;;16.80;62.00;;;;;;5032155;28;20033;-65
2021/05/26 07:39:34;;;;;;;5.05;0.77;;;16.80;62.00;;;;;;5032665;28;20040;-66
2021/05/26 07:42:00;;;;;;;2.22;0.60;;;16.90;61.50;;;;;;5032771;28;20034;-65
2021/05/26 07:44:26;;;;;;;4.03;1.15;;;17.00;61.40;;;;;;5033014;28;20395;-65
2021/05/26 07:46:54;;;;;;;4.68;0.60;;;17.10;61.60;;;;;;5032278;28;20079;-66
2021/05/26 07:49:20;;;;;;;2.42;0.68;;;17.20;61.50;;;;;;5032653;28;20362;-66
2021/05/26 07:51:50;;;;;;;2.83;0.80;;;17.20;61.20;;;;;;5032923;28;20057;-76
2021/05/26 07:54:16;;;;;;;1.35;0.50;;;17.30;60.80;;;;;;5032487;28;20425;-66
2021/05/26 07:56:42;;;;;;;3.08;0.73;;;17.30;61.70;;;;;;5032722;28;20056;-66
2021/05/26 07:59:07;;;;;;;0.93;0.57;;;17.40;61.70;;;;;;5032195;28;20040;-68
2021/05/26 08:01:33;;;;;;;2.13;0.70;;;17.50;61.20;;;;;;5032784;28;20022;-66
2021/05/26 08:03:59;;;;;;;3.15;0.70;;;17.50;60.60;;;;;;5032576;28;20075;-66
2021/05/26 08:06:25;;;;;;;2.38;0.50;;;17.60;60.80;;;;;;5032666;28;20029;-65
2021/05/26 08:08:50;;;;;;;2.45;0.68;;;17.60;60.60;;;;;;5035643;28;20385;-66
2021/05/26 08:11:16;;;;;;;4.50;0.70;;;17.70;59.50;;;;;;5036381;28;20029;-65
2021/05/26 08:13:42;;;;;;;2.38;0.63;;;17.70;59.50;;;;;;5035863;28;20021;-66
2021/05/26 08:16:09;;;;;;;2.40;0.70;;;17.80;58.10;;;;;;5036439;28;20466;-65
2021/05/26 08:18:35;;;;;;;2.15;0.80;;;17.80;56.50;;;;;;5036110;28;20041;-66
2021/05/26 08:21:00;;;;;;;3.45;0.70;;;17.80;56.30;;;;;;5036568;28;20378;-65
2021/05/26 08:23:26;;;;;;;1.05;0.60;;;17.90;58.10;;;;;;5036211;28;20032;-65
2021/05/26 08:25:52;;;;;;;3.30;0.80;;;18.00;57.50;;;;;;5036081;28;20103;-66
2021/05/26 08:28:18;;;;;;;2.38;0.60;;;18.10;56.60;;;;;;5036599;28;20026;-65
2021/05/26 08:30:45;;;;;;;1.98;0.70;;;18.10;57.40;;;;;;5036011;28;20397;-65
2021/05/26 08:33:11;;;;;;;1.75;0.65;;;18.20;59.40;;;;;;5035792;28;20044;-65
2021/05/26 08:35:37;;;;;;;4.38;0.88;;;18.30;58.30;;;;;;5036268;28;20032;-65
2021/05/26 08:38:03;;;;;;;1.67;0.98;;;18.40;58.00;;;;;;5035934;28;20116;-65
2021/05/26 08:40:29;;;;;;;3.13;0.68;;;18.60;57.20;;;;;;5035803;28;20061;-66
2021/05/26 08:42:55;;;;;;;1.10;0.68;;;18.70;57.80;;;;;;5034744;28;20072;-66
2021/05/26 08:45:21;;;;;;;2.83;0.70;;;18.70;56.70;;;;;;5034758;28;20049;-65
2021/05/26 08:47:52;;;;;;;5.25;0.90;;;18.80;56.30;;;;;;5034747;28;20029;-65
2021/05/26 08:50:18;;;;;;;2.37;0.73;;;18.90;55.80;;;;;;5035809;28;20436;-66
2021/05/26 08:52:45;;;;;;;1.45;0.73;;;19.00;55.40;;;;;;5035899;28;20037;-66
2021/05/26 08:55:12;;;;;;;4.85;0.80;;;19.10;56.00;;;;;;5035815;28;20032;-66
2021/05/26 08:57:38;;;;;;;3.95;0.70;;;19.20;55.60;;;;;;5035674;28;20025;-66
2021/05/26 09:00:05;;;;;;;1.35;0.60;;;19.30;54.80;;;;;;5035838;28;20030;-65
2021/05/26 09:02:31;;;;;;;1.92;1.00;;;19.40;55.40;;;;;;5035794;28;20021;-66
2021/05/26 09:04:56;;;;;;;3.38;0.88;;;19.40;52.60;;;;;;5035569;28;20029;-65
2021/05/26 09:07:23;;;;;;;8.05;1.92;;;19.50;53.20;;;;;;5035680;28;20033;-66
2021/05/26 09:09:54;;;;;;;1.77;0.52;;;19.50;53.80;;;;;;5035506;28;20385;-65
2021/05/26 09:12:28;;;;;;;5.50;0.90;;;19.60;53.60;;;;;;5035613;28;20037;-65
2021/05/26 09:15:00;;;;;;;1.17;0.70;;;19.70;53.30;;;;;;5035143;28;20313;-65
2021/05/26 09:17:29;;;;;;;2.90;0.55;;;19.80;53.60;;;;;;5035111;28;20036;-66
2021/05/26 09:20:13;;;;;;;5.18;0.80;;;19.90;51.80;;;;;;5034253;28;20040;-66
2021/05/26 09:22:41;;;;;;;1.90;0.70;;;19.90;52.80;;;;;;5035354;28;20402;-66
2021/05/26 09:25:08;;;;;;;2.17;0.80;;;20.00;52.80;;;;;;5034866;28;20113;-66
2021/05/26 09:27:34;;;;;;;1.08;0.75;;;20.10;52.20;;;;;;5034871;28;20030;-66
2021/05/26 09:30:00;;;;;;;1.63;0.80;;;20.10;51.60;;;;;;5034425;28;20090;-66
2021/05/26 09:32:27;;;;;;;1.55;0.77;;;20.20;52.10;;;;;;5034254;28;20045;-66
2021/05/26 09:34:57;;;;;;;3.20;0.80;;;20.30;52.70;;;;;;5034473;28;20398;-67
2021/05/26 09:37:23;;;;;;;2.63;0.90;;;20.40;52.20;;;;;;5034955;28;20033;-66
2021/05/26 09:40:10;;;;;;;6.65;1.00;;;20.40;52.20;;;;;;5035080;28;20034;-67
2021/05/26 09:42:46;;;;;;;1.38;0.70;;;20.50;52.00;;;;;;5034825;28;20017;-66
2021/05/26 09:45:25;;;;;;;2.35;0.70;;;20.60;51.00;;;;;;5034719;28;20030;-66
2021/05/26 09:47:56;;;;;;;2.58;0.88;;;20.70;51.30;;;;;;5034490;28;20062;-66
2021/05/26 09:50:27;;;;;;;5.20;1.02;;;20.80;51.80;;;;;;5034732;28;20029;-66
2021/05/26 09:52:54;;;;;;;2.13;0.93;;;20.90;50.50;;;;;;5034708;28;20494;-66
2021/05/26 09:55:35;;;;;;;1.95;0.90;;;21.00;50.00;;;;;;5034871;28;20031;-66
2021/05/26 09:58:06;;;;;;;2.00;0.80;;;21.10;48.40;;;;;;5034421;28;20045;-67
2021/05/26 10:00:33;;;;;;;5.93;1.17;;;21.10;49.90;;;;;;5034450;28;20025;-67
2021/05/26 10:02:59;;;;;;;2.97;0.80;;;21.20;49.80;;;;;;5034332;28;20168;-66
2021/05/26 10:05:25;;;;;;;1.83;0.80;;;21.20;47.30;;;;;;5034467;28;20505;-67
2021/05/26 10:07:57;;;;;;;4.03;0.80;;;21.20;47.70;;;;;;5034443;28;20458;-67
2021/05/26 10:10:28;;;;;;;6.15;0.82;;;21.20;46.70;;;;;;5034300;28;20029;-67
2021/05/26 10:12:58;;;;;;;2.95;0.80;;;21.20;47.40;;;;;;5034281;28;20083;-66
2021/05/26 10:15:25;;;;;;;5.40;1.00;;;21.20;48.10;;;;;;5034170;28;20049;-67
2021/05/26 10:17:53;;;;;;;4.57;1.00;;;21.20;47.20;;;;;;5034422;28;20048;-66
2021/05/26 10:20:22;;;;;;;3.33;0.80;;;21.30;48.70;;;;;;5034420;28;20025;-67
2021/05/26 10:22:50;;;;;;;3.47;1.10;;;21.40;45.50;;;;;;5034047;28;20029;-66
2021/05/26 10:25:16;;;;;;;1.63;0.80;;;21.40;46.10;;;;;;5033925;28;20029;-66
2021/05/26 10:27:47;;;;;;;2.70;0.80;;;21.50;47.60;;;;;;5033978;28;20489;-66
2021/05/26 10:30:13;;;;;;;3.00;1.08;;;21.60;49.30;;;;;;5033535;28;20069;-66
2021/05/26 10:32:57;;;;;;;2.92;0.88;;;21.70;48.80;;;;;;5033565;28;20560;-66
2021/05/26 10:35:24;;;;;;;6.00;1.10;;;21.80;47.20;;;;;;5034063;28;20099;-67
2021/05/26 10:38:08;;;;;;;1.60;0.90;;;21.90;46.50;;;;;;5032799;28;20408;-67
2021/05/26 10:40:36;;;;;;;8.10;1.30;;;22.00;46.70;;;;;;5033612;28;20087;-67
2021/05/26 10:43:15;;;;;;;4.97;1.00;;;22.10;46.30;;;;;;5033500;28;20517;-66
2021/05/26 10:45:40;;;;;;;1.88;0.80;;;22.10;46.20;;;;;;5033138;28;20029;-66
2021/05/26 10:48:06;;;;;;;3.50;1.10;;;22.20;46.50;;;;;;5032958;28;20029;-67
2021/05/26 10:50:44;;;;;;;1.75;0.93;;;22.30;46.70;;;;;;5033271;28;20021;-74
2021/05/26 10:53:10;;;;;;;3.33;1.10;;;22.30;47.30;;;;;;5033232;28;20040;-66
2021/05/26 10:55:49;;;;;;;7.40;1.10;;;22.40;46.90;;;;;;5032893;28;20592;-67
2021/05/26 10:58:25;;;;;;;3.20;0.80;;;22.50;46.50;;;;;;5032733;28;20034;-67
2021/05/26 11:00:59;;;;;;;2.92;1.00;;;22.60;48.00;;;;;;5033334;28;20025;-73
2021/05/26 11:03:25;;;;;;;1.17;0.85;;;22.60;43.30;;;;;;5033665;28;20029;-66
2021/05/26 11:05:52;;;;;;;3.28;0.88;;;22.70;45.20;;;;;;5033609;28;20021;-66
2021/05/26 11:08:27;;;;;;;2.22;0.82;;;22.70;47.10;;;;;;5033290;28;20025;-66
2021/05/26 11:10:53;;;;;;;1.60;0.90;;;22.80;46.60;;;;;;5033357;28;20033;-66
2021/05/26 11:13:19;;;;;;;3.13;0.93;;;22.90;47.70;;;;;;5033388;28;20025;-66
2021/05/26 11:15:45;;;;;;;2.80;0.73;;;23.00;48.00;;;;;;5033432;28;20022;-66
2021/05/26 11:18:18;;;;;;;3.10;0.80;;;23.00;48.30;;;;;;5033206;28;20034;-66
2021/05/26 11:20:43;;;;;;;4.95;1.08;;;23.10;46.80;;;;;;5033255;28;20022;-66
2021/05/26 11:23:14;;;;;;;2.08;0.95;;;23.20;48.00;;;;;;5033140;28;20032;-73
2021/05/26 11:25:56;;;;;;;2.83;1.13;;;23.20;45.90;;;;;;5033239;28;20021;-66
2021/05/26 11:28:30;;;;;;;4.85;1.25;;;23.30;46.50;;;;;;5033086;28;20029;-66
2021/05/26 11:30:59;;;;;;;2.47;0.95;;;23.30;46.90;;;;;;5032992;28;20449;-66
2021/05/26 11:33:25;;;;;;;2.80;1.10;;;23.30;45.70;;;;;;5032468;28;20500;-66
2021/05/26 11:35:51;;;;;;;4.95;1.25;;;23.40;45.00;;;;;;5032799;28;20022;-66
2021/05/26 11:38:25;;;;;;;2.53;1.08;;;23.40;44.00;;;;;;5031064;28;20041;-66
2021/05/26 11:40:51;;;;;;;2.97;1.10;;;23.40;46.00;;;;;;5032591;28;20017;-67
2021/05/26 11:43:21;;;;;;;2.40;0.90;;;23.30;43.50;;;;;;5035721;28;20496;-67
2021/05/26 11:45:49;;;;;;;3.53;1.23;;;23.30;46.10;;;;;;5036689;28;20026;-67
2021/05/26 11:48:20;;;;;;;2.85;1.00;;;23.30;45.70;;;;;;5036708;28;20070;-67
2021/05/26 11:50:47;;;;;;;4.23;1.07;;;23.20;48.00;;;;;;5036666;28;20030;-67
2021/05/26 11:53:14;;;;;;;4.35;1.17;;;23.20;47.50;;;;;;5036701;28;20707;-75
2021/05/26 11:55:43;;;;;;;3.97;1.27;;;23.20;45.50;;;;;;5036552;28;20029;-67
2021/05/26 11:58:09;;;;;;;3.25;1.10;;;23.20;46.50;;;;;;5036518;28;20049;-70
2021/05/26 12:00:36;;;;;;;3.08;1.10;;;23.30;47.20;;;;;;5036849;28;20025;-67
2021/05/26 12:03:12;;;;;;;4.97;0.93;;;23.30;47.50;;;;;;5036495;28;20037;-71
2021/05/26 12:05:38;;;;;;;3.88;1.10;;;23.30;47.10;;;;;;5036417;28;20028;-66
2021/05/26 12:08:12;;;;;;;2.83;1.13;;;23.30;45.10;;;;;;5036330;28;20053;-66
2021/05/26 12:10:38;;;;;;;3.67;1.10;;;23.30;45.70;;;;;;5036397;28;20435;-66
2021/05/26 12:13:04;;;;;;;5.63;1.60;;;23.30;47.50;;;;;;5036356;28;20061;-71
2021/05/26 12:15:31;;;;;;;2.88;1.00;;;23.40;49.10;;;;;;5036181;28;20528;-68
2021/05/26 12:17:57;;;;;;;3.47;1.35;;;23.40;48.90;;;;;;5036165;28;20065;-69
2021/05/26 12:20:23;;;;;;;5.40;1.15;;;23.40;46.80;;;;;;5036165;28;20091;-68
2021/05/26 12:22:51;;;;;;;3.00;1.10;;;23.40;45.30;;;;;;5036251;28;20465;-67
2021/05/26 12:25:17;;;;;;;4.38;1.30;;;23.40;45.70;;;;;;5036116;28;20104;-67
2021/05/26 12:27:48;;;;;;;2.22;1.10;;;23.40;46.00;;;;;;5036201;28;20034;-67
2021/05/26 12:30:22;;;;;;;3.60;1.20;;;23.30;47.10;;;;;;5036018;28;20083;-67
2021/05/26 12:32:49;;;;;;;5.55;1.38;;;23.40;44.70;;;;;;5036283;28;20025;-68
2021/05/26 12:35:22;;;;;;;2.58;1.15;;;23.40;43.40;;;;;;5036105;28;20022;-66
2021/05/26 12:37:52;;;;;;;2.83;1.10;;;23.40;41.20;;;;;;5035879;28;20034;-66
2021/05/26 12:40:31;;;;;;;5.88;1.30;;;23.40;43.30;;;;;;5036004;28;20037;-66
2021/05/26 12:42:59;;;;;;;3.90;1.15;;;23.30;43.30;;;;;;5035948;28;20030;-68
2021/05/26 12:45:30;;;;;;;3.65;1.10;;;23.20;43.10;;;;;;5034505;28;20037;-67
2021/05/26 12:47:58;;;;;;;4.88;1.30;;;23.20;43.90;;;;;;5035569;28;20029;-67
2021/05/26 12:50:29;;;;;;;3.67;1.00;;;23.20;44.60;;;;;;5035866;28;20032;-67